Svitzer Stanlow — MLNF7 — position and weather

sailwx.info

Track history (hours):
 
Tides and Currents Weather Stations Pressure Air Temp Water Temp Dewpoint Dewpoint Depression Visibility Wind Speed Wind Dir Waves Ship Positions

Svitzer Stanlow

Last reported at 2018-Apr-26 09:26 UTC. Time now 2018-Apr-26 09:50 UTC.
Position N 53°23' W 002°60'.

Length 39 m.

Type: Tug. MMSI: 235010620.

Date/timePositionNaut miles runAvg speedWind from/ knotsBaromVisibWave heightAir tempDewpointWater temp
2018-Apr-26 09:26N 53°23' W 002°60'0 0.0
2018-Apr-26 08:59N 53°23' W 002°60'0 0.0
2018-Apr-26 08:29N 53°23' W 002°60'0 0.0
2018-Apr-26 07:59N 53°23' W 002°60'0 0.0
2018-Apr-26 07:23N 53°23' W 002°60'0 0.0
2018-Apr-26 06:58N 53°23' W 002°60'0 0.0
2018-Apr-26 06:28N 53°23' W 002°60'0 0.0
2018-Apr-26 05:58N 53°23' W 002°60'0 0.0
2018-Apr-26 05:28N 53°23' W 002°60'0 0.0
2018-Apr-26 04:58N 53°23' W 002°60'0 0.0
2018-Apr-26 04:28N 53°23' W 002°60'0 0.0
2018-Apr-26 03:58N 53°23' W 002°60'0 0.0
2018-Apr-26 03:28N 53°23' W 002°60'0 0.0
2018-Apr-26 02:58N 53°23' W 002°60'0 0.0
2018-Apr-26 02:28N 53°23' W 002°60'0 0.0
2018-Apr-26 01:58N 53°23' W 002°60'0 0.0
2018-Apr-26 01:28N 53°23' W 002°60'0 0.0
2018-Apr-26 00:58N 53°23' W 002°60'0 0.0
2018-Apr-26 00:28N 53°23' W 002°60'0 0.0
2018-Apr-25 23:58N 53°23' W 002°60'0 0.0
2018-Apr-25 23:28N 53°23' W 002°60'0 0.0
2018-Apr-25 22:58N 53°23' W 002°60'0 0.0
2018-Apr-25 22:28N 53°23' W 002°60'0 0.0
2018-Apr-25 21:58N 53°23' W 002°60'0 0.0
2018-Apr-25 21:25N 53°23' W 002°60'0 0.0
2018-Apr-25 20:58N 53°23' W 002°60'0 0.0
2018-Apr-25 20:28N 53°23' W 002°60'0 0.0
2018-Apr-25 19:58N 53°23' W 002°60'0 0.0
2018-Apr-25 19:28N 53°23' W 002°60'0 0.0
2018-Apr-25 18:52N 53°23' W 002°60'0 0.0
2018-Apr-25 18:28N 53°23' W 002°60'0 0.0
2018-Apr-25 17:58N 53°23' W 002°60'0 0.0
2018-Apr-25 17:25N 53°23' W 002°60'0 0.0
2018-Apr-25 16:58N 53°23' W 002°60'0 0.0
2018-Apr-25 16:28N 53°23' W 002°60'0 0.0
2018-Apr-25 15:58N 53°23' W 002°60'0 0.0
2018-Apr-25 15:25N 53°23' W 002°60'0 0.0
2018-Apr-25 14:58N 53°23' W 002°60'0 0.0
2018-Apr-25 14:25N 53°23' W 002°60'0 0.0
2018-Apr-25 13:58N 53°23' W 002°60'0 0.0
2018-Apr-25 13:28N 53°23' W 002°60'0 0.0
2018-Apr-25 12:58N 53°23' W 002°60'0 0.0
2018-Apr-25 12:25N 53°23' W 002°60'0 0.0
2018-Apr-25 11:55N 53°23' W 002°60'0 0.0
2018-Apr-25 11:25N 53°23' W 002°60'0 0.0
2018-Apr-25 10:58N 53°23' W 002°60'0 0.0
2018-Apr-25 10:25N 53°23' W 002°60'0 0.0
2018-Apr-25 09:58N 53°23' W 002°60'0 0.0
2018-Apr-25 09:28N 53°23' W 002°60'0 0.0
2018-Apr-25 08:58N 53°23' W 002°60'0 0.0
2018-Apr-25 08:28N 53°23' W 002°60'0 0.0
2018-Apr-25 07:55N 53°23' W 002°60'0 0.6
2018-Apr-25 07:28N 53°23' W 003°00'1 1.1
2018-Apr-25 06:59N 53°23' W 003°00'2 5.0
2018-Apr-25 06:30N 53°26' W 003°01'5 8.6
2018-Apr-25 05:59N 53°30' W 003°05'4 8.6
2018-Apr-25 05:30N 53°32' W 003°11'3 6.4
2018-Apr-25 05:00N 53°31' W 003°06'510.5
2018-Apr-25 04:30N 53°26' W 003°01'2 3.7
2018-Apr-25 04:00N 53°25' W 003°00'2 3.8
2018-Apr-25 03:30N 53°26' W 003°01'1 1.8
2018-Apr-25 02:59N 53°25' W 003°00'0 0.0
2018-Apr-25 02:29N 53°25' W 003°00'0 0.0
2018-Apr-25 01:59N 53°25' W 003°00'0 0.0
2018-Apr-25 01:29N 53°25' W 003°00'0 0.0
2018-Apr-25 00:59N 53°25' W 003°00'0 0.0
2018-Apr-25 00:29N 53°25' W 003°00'0 0.0
2018-Apr-24 23:59N 53°25' W 003°00'0 0.0
2018-Apr-24 23:29N 53°25' W 003°00'0 0.0
2018-Apr-24 22:59N 53°25' W 003°00'0 0.0
2018-Apr-24 22:29N 53°25' W 003°00'0 0.0
2018-Apr-24 21:59N 53°25' W 003°00'0 0.0
2018-Apr-24 21:29N 53°25' W 003°00'0 0.0
2018-Apr-24 20:59N 53°25' W 003°00'0 0.0
2018-Apr-24 20:29N 53°25' W 003°00'0 0.0
2018-Apr-24 19:59N 53°25' W 003°00'0 0.0
2018-Apr-24 19:29N 53°25' W 003°00'0 0.0
2018-Apr-24 18:59N 53°25' W 003°00'0 0.0
2018-Apr-24 18:29N 53°25' W 003°00'0 0.0
2018-Apr-24 17:59N 53°25' W 003°00'0 0.0
2018-Apr-24 17:29N 53°25' W 003°00'0 0.0
2018-Apr-24 16:59N 53°25' W 003°00'0 0.0
2018-Apr-24 16:29N 53°25' W 003°00'0 0.0
2018-Apr-24 15:59N 53°25' W 003°00'0 0.0
2018-Apr-24 15:29N 53°25' W 003°00'0 0.0
2018-Apr-24 14:59N 53°25' W 003°00'0 0.0
2018-Apr-24 14:29N 53°25' W 003°00'0 0.0
2018-Apr-24 13:56N 53°25' W 003°00'0 0.0
2018-Apr-24 13:26N 53°25' W 003°00'0 0.0
2018-Apr-24 12:59N 53°25' W 003°00'0 0.0
2018-Apr-24 12:29N 53°25' W 003°00'0 0.0
2018-Apr-24 11:59N 53°25' W 003°00'0 0.0
2018-Apr-24 11:29N 53°25' W 003°00'0 0.0
2018-Apr-24 10:59N 53°25' W 003°00'0 0.0
2018-Apr-24 10:29N 53°25' W 003°00'0 0.0
2018-Apr-24 09:56N 53°25' W 003°00'0 0.0
2018-Apr-24 09:29N 53°25' W 003°00'0 0.0
2018-Apr-24 08:59N 53°25' W 003°00'0 0.0
2018-Apr-24 08:29N 53°25' W 003°00'0 0.0
2018-Apr-24 07:59N 53°25' W 003°00'0 0.0
2018-Apr-24 07:29N 53°25' W 003°00'0 0.0
2018-Apr-24 06:59N 53°25' W 003°00'0 0.0
2018-Apr-24 06:26N 53°25' W 003°00'0 0.0
2018-Apr-24 05:59N 53°25' W 003°00'0 0.0
2018-Apr-24 05:29N 53°25' W 003°00'0 0.0
2018-Apr-24 04:59N 53°25' W 003°00'0 0.0
2018-Apr-24 04:26N 53°25' W 003°00'0 0.0
2018-Apr-24 03:58N 53°25' W 003°00'0 0.0
2018-Apr-24 03:28N 53°25' W 003°00'0 0.0
2018-Apr-24 02:55N 53°25' W 003°00'0 0.0
2018-Apr-24 02:28N 53°25' W 003°00'0 0.0
2018-Apr-24 01:58N 53°25' W 003°00'0 0.0
2018-Apr-24 01:25N 53°25' W 003°00'0 0.0
2018-Apr-24 00:55N 53°25' W 003°00'0 0.0
2018-Apr-24 00:28N 53°25' W 003°00'0 0.0
2018-Apr-23 23:58N 53°25' W 003°00'0 0.0
2018-Apr-23 23:28N 53°25' W 003°00'0 0.0
2018-Apr-23 22:52N 53°25' W 003°00'0 0.0
2018-Apr-23 22:28N 53°25' W 003°00'0 0.0
2018-Apr-23 21:58N 53°25' W 003°00'0 0.0
2018-Apr-23 21:28N 53°25' W 003°00'0 0.0
2018-Apr-23 20:55N 53°25' W 003°00'0 0.0
2018-Apr-23 20:28N 53°25' W 003°00'0 0.0
2018-Apr-23 19:58N 53°25' W 003°00'0 0.0
2018-Apr-23 19:28N 53°25' W 003°00'0 0.0
2018-Apr-23 18:55N 53°25' W 003°00'0 0.0
2018-Apr-23 18:22N 53°25' W 003°00'0 0.0
2018-Apr-23 17:58N 53°25' W 003°00'0 0.0
2018-Apr-23 17:25N 53°25' W 003°00'0 0.0
2018-Apr-23 16:55N 53°25' W 003°00'0 0.0
2018-Apr-23 16:28N 53°25' W 003°00'0 0.0
2018-Apr-23 15:55N 53°25' W 003°00'0 0.0
2018-Apr-23 15:25N 53°25' W 003°00'0 0.0
2018-Apr-23 14:58N 53°25' W 003°00'0 0.0
2018-Apr-23 14:28N 53°25' W 003°00'0 0.0
2018-Apr-23 13:58N 53°25' W 003°00'0 0.0
2018-Apr-23 13:28N 53°25' W 003°00'0 0.0
2018-Apr-23 12:58N 53°25' W 003°00'0 0.0
2018-Apr-23 12:28N 53°25' W 003°00'0 0.0
2018-Apr-23 11:58N 53°25' W 003°00'0 0.0
2018-Apr-23 11:28N 53°25' W 003°00'0 0.0
2018-Apr-23 10:58N 53°25' W 003°00'0 0.0
2018-Apr-23 10:25N 53°25' W 003°00'0 0.0
2018-Apr-23 09:58N 53°25' W 003°00'0 0.0
2018-Apr-23 09:25N 53°25' W 003°00'0 0.0
2018-Apr-23 08:58N 53°25' W 003°00'0 0.0
2018-Apr-23 08:28N 53°25' W 003°00'0 0.0
2018-Apr-23 07:55N 53°25' W 003°00'0 0.0
2018-Apr-23 07:28N 53°25' W 003°00'0 0.0
2018-Apr-23 06:58N 53°25' W 003°00'0 0.0
2018-Apr-23 06:28N 53°25' W 003°00'0 0.0
2018-Apr-23 05:58N 53°25' W 003°00'0 0.0
2018-Apr-23 05:28N 53°25' W 003°00'0 0.3
2018-Apr-23 05:00N 53°26' W 003°00'1 1.0
2018-Apr-23 04:26N 53°26' W 003°00'0 0.1
2018-Apr-23 03:59N 53°26' W 003°00'0 0.6
2018-Apr-23 03:28N 53°26' W 003°00'0 0.3
2018-Apr-23 03:00N 53°26' W 003°01'0 0.0
2018-Apr-23 02:30N 53°26' W 003°01'0 0.1
2018-Apr-23 01:57N 53°26' W 003°01'0 1.0
2018-Apr-23 01:30N 53°26' W 003°01'1 1.2
2018-Apr-23 00:59N 53°27' W 003°01'2 3.4
2018-Apr-23 00:29N 53°25' W 003°00'0 0.0
2018-Apr-22 23:59N 53°25' W 003°00'0 0.0
2018-Apr-22 23:29N 53°25' W 003°00'0 0.0
2018-Apr-22 22:59N 53°25' W 003°00'0 0.0
2018-Apr-22 22:26N 53°25' W 003°00'0 0.0
2018-Apr-22 21:59N 53°25' W 003°00'0 0.0
2018-Apr-22 21:28N 53°25' W 003°00'0 0.0
2018-Apr-22 20:58N 53°25' W 003°00'0 0.0
2018-Apr-22 20:28N 53°25' W 003°00'0 0.0
2018-Apr-22 19:58N 53°25' W 003°00'0 0.0
2018-Apr-22 19:25N 53°25' W 003°00'0 0.0
2018-Apr-22 18:58N 53°25' W 003°00'0 0.0
2018-Apr-22 18:25N 53°25' W 003°00'0 0.0
2018-Apr-22 17:58N 53°25' W 003°00'0 0.0
2018-Apr-22 17:28N 53°25' W 003°00'0 0.0
2018-Apr-22 16:49N 53°25' W 003°00'0 0.0
2018-Apr-22 16:28N 53°25' W 003°00'0 0.0
2018-Apr-22 15:58N 53°25' W 003°00'0 0.0
2018-Apr-22 15:28N 53°25' W 003°00'0 0.0
2018-Apr-22 14:58N 53°25' W 003°00'0 0.0
2018-Apr-22 14:28N 53°25' W 003°00'0 0.0
2018-Apr-22 13:58N 53°25' W 003°00'0 0.0
2018-Apr-22 13:28N 53°25' W 003°00'0 0.0
2018-Apr-22 12:55N 53°25' W 003°00'0 0.0
2018-Apr-22 12:28N 53°25' W 003°00'0 0.0
2018-Apr-22 11:58N 53°25' W 003°00'0 0.0
2018-Apr-22 11:22N 53°25' W 003°00'0 0.0
2018-Apr-22 10:55N 53°25' W 003°00'0 0.0
2018-Apr-22 10:25N 53°25' W 003°00'0 0.0
2018-Apr-22 09:55N 53°25' W 003°00'0 0.0
2018-Apr-22 09:28N 53°25' W 003°00'0 0.0
2018-Apr-22 08:58N 53°25' W 003°00'0 0.0
2018-Apr-22 08:28N 53°25' W 003°00'0 0.0
2018-Apr-22 07:58N 53°25' W 003°00'0 0.0
2018-Apr-22 07:28N 53°25' W 003°00'0 0.0
2018-Apr-22 06:58N 53°25' W 003°00'0 0.0
2018-Apr-22 06:28N 53°25' W 003°00'0 0.0
2018-Apr-22 05:58N 53°25' W 003°00'0 0.0
2018-Apr-22 05:28N 53°25' W 003°00'0 0.0
2018-Apr-22 04:55N 53°25' W 003°00'0 0.0
2018-Apr-22 04:25N 53°25' W 003°00'0 0.0
2018-Apr-22 03:58N 53°25' W 003°00'0 0.0
2018-Apr-22 03:29N 53°25' W 003°00'2 2.7
2018-Apr-22 02:53N 53°27' W 003°01'1 3.5
2018-Apr-22 02:30N 53°26' W 003°01'3 4.9
2018-Apr-22 01:52N 53°23' W 002°60'0 0.6
2018-Apr-22 01:29N 53°23' W 003°00'0 0.0
2018-Apr-22 00:56N 53°23' W 003°00'0 0.0
2018-Apr-22 00:26N 53°23' W 003°00'0 0.0
2018-Apr-21 23:56N 53°23' W 003°00'0 0.0
2018-Apr-21 23:29N 53°23' W 003°00'0 0.0
2018-Apr-21 22:59N 53°23' W 003°00'0 0.0
2018-Apr-21 22:29N 53°23' W 003°00'0 0.0
2018-Apr-21 21:59N 53°23' W 003°00'0 0.0
2018-Apr-21 21:26N 53°23' W 003°00'0 0.0
2018-Apr-21 20:53N 53°23' W 003°00'0 0.0
2018-Apr-21 20:23N 53°23' W 003°00'0 0.0
2018-Apr-21 19:59N 53°23' W 003°00'0 0.0
2018-Apr-21 19:29N 53°23' W 003°00'0 0.0
2018-Apr-21 18:59N 53°23' W 003°00'0 0.0
2018-Apr-21 18:28N 53°23' W 003°00'0 0.0
2018-Apr-21 17:55N 53°23' W 003°00'0 0.0
2018-Apr-21 17:28N 53°23' W 003°00'0 0.0
2018-Apr-21 16:55N 53°23' W 003°00'0 0.0
2018-Apr-21 16:28N 53°23' W 003°00'0 0.0
2018-Apr-21 15:55N 53°23' W 003°00'0 0.0
2018-Apr-21 15:28N 53°23' W 003°00'0 0.0
2018-Apr-21 14:55N 53°23' W 003°00'0 0.0
2018-Apr-21 14:28N 53°23' W 003°00'0 0.0
2018-Apr-21 13:58N 53°23' W 003°00'0 0.0
2018-Apr-21 13:28N 53°23' W 003°00'0 0.0
2018-Apr-21 12:58N 53°23' W 003°00'0 0.0
2018-Apr-21 12:28N 53°23' W 003°00'0 0.0
2018-Apr-21 11:52N 53°23' W 003°00'0 0.0
2018-Apr-21 11:25N 53°23' W 003°00'0 0.0
2018-Apr-21 10:58N 53°23' W 003°00'0 0.0
2018-Apr-21 10:28N 53°23' W 003°00'0 0.0
2018-Apr-21 09:58N 53°23' W 003°00'0 0.0
2018-Apr-21 09:28N 53°23' W 003°00'0 0.0
2018-Apr-21 08:58N 53°23' W 003°00'0 0.0
2018-Apr-21 08:28N 53°23' W 003°00'0 0.0
2018-Apr-21 07:58N 53°23' W 003°00'0 0.0
2018-Apr-21 07:28N 53°23' W 003°00'0 0.0
2018-Apr-21 06:58N 53°23' W 003°00'0 0.0
2018-Apr-21 06:28N 53°23' W 003°00'0 0.0
2018-Apr-21 05:58N 53°23' W 003°00'0 0.0
2018-Apr-21 05:28N 53°23' W 003°00'0 0.0
2018-Apr-21 04:58N 53°23' W 003°00'0 0.0
2018-Apr-21 04:25N 53°23' W 003°00'0 0.0
2018-Apr-21 03:55N 53°23' W 003°00'0 0.0
2018-Apr-21 03:28N 53°23' W 003°00'0 0.0
2018-Apr-21 02:55N 53°23' W 003°00'0 0.0
2018-Apr-21 02:28N 53°23' W 003°00'0 0.0
2018-Apr-21 01:58N 53°23' W 003°00'0 0.0
2018-Apr-21 01:22N 53°23' W 003°00'0 0.0
2018-Apr-21 00:55N 53°23' W 003°00'0 0.0
2018-Apr-21 00:28N 53°23' W 003°00'0 0.0
2018-Apr-20 23:58N 53°23' W 003°00'0 0.0
2018-Apr-20 23:28N 53°23' W 003°00'0 0.0
2018-Apr-20 22:58N 53°23' W 003°00'0 0.0
2018-Apr-20 22:28N 53°23' W 003°00'0 0.0
2018-Apr-20 21:58N 53°23' W 003°00'0 0.0
2018-Apr-20 21:28N 53°23' W 003°00'0 0.0
2018-Apr-20 20:55N 53°23' W 003°00'0 0.0
2018-Apr-20 20:28N 53°23' W 003°00'0 0.0
2018-Apr-20 19:58N 53°23' W 003°00'0 0.0
2018-Apr-20 19:28N 53°23' W 003°00'0 0.0
2018-Apr-20 18:58N 53°23' W 003°00'0 0.0
2018-Apr-20 18:28N 53°23' W 003°00'0 0.0
2018-Apr-20 17:58N 53°23' W 003°00'0 0.0
2018-Apr-20 17:28N 53°23' W 003°00'0 0.0
2018-Apr-20 16:58N 53°23' W 003°00'0 0.0
2018-Apr-20 16:28N 53°23' W 003°00'0 0.0
2018-Apr-20 15:58N 53°23' W 003°00'0 0.0
2018-Apr-20 15:28N 53°23' W 003°00'0 0.0
2018-Apr-20 14:58N 53°23' W 003°00'0 0.0
2018-Apr-20 14:28N 53°23' W 003°00'0 0.0
2018-Apr-20 13:58N 53°23' W 003°00'0 0.0
2018-Apr-20 13:28N 53°23' W 003°00'0 0.0
2018-Apr-20 12:58N 53°23' W 003°00'0 0.0
2018-Apr-20 12:28N 53°23' W 003°00'0 0.0
2018-Apr-20 11:58N 53°23' W 003°00'0 0.0
2018-Apr-20 11:28N 53°23' W 003°00'0 0.0
2018-Apr-20 11:01N 53°23' W 003°00'0 0.0
2018-Apr-20 10:31N 53°23' W 003°00'0 0.0
2018-Apr-20 10:01N 53°23' W 003°00'0 0.0
2018-Apr-20 09:30N 53°23' W 003°00'0 0.0
2018-Apr-20 08:57N 53°23' W 003°00'0 0.0
2018-Apr-20 08:30N 53°23' W 003°00'0 0.0
2018-Apr-20 07:57N 53°23' W 003°00'0 0.0
2018-Apr-20 07:24N 53°23' W 003°00'0 0.0
2018-Apr-20 07:00N 53°23' W 003°00'0 0.0
2018-Apr-20 06:30N 53°23' W 003°00'0 0.0
2018-Apr-20 06:00N 53°23' W 003°00'0 0.0
2018-Apr-20 05:30N 53°23' W 003°00'0 0.0
2018-Apr-20 05:00N 53°23' W 003°00'0 0.0
2018-Apr-20 04:27N 53°23' W 003°00'0 0.0
2018-Apr-20 04:00N 53°23' W 003°00'0 0.0
2018-Apr-20 03:30N 53°23' W 003°00'0 0.0
2018-Apr-20 03:00N 53°23' W 003°00'0 0.0
2018-Apr-20 02:30N 53°23' W 003°00'0 0.0
2018-Apr-20 01:57N 53°23' W 003°00'0 0.0
2018-Apr-20 01:30N 53°23' W 003°00'0 0.0
2018-Apr-20 01:00N 53°23' W 003°00'0 0.0
2018-Apr-20 00:24N 53°23' W 003°00'0 0.0
2018-Apr-20 00:00N 53°23' W 003°00'0 0.0
2018-Apr-19 23:27N 53°23' W 003°00'0 0.0
2018-Apr-19 23:00N 53°23' W 003°00'0 0.0
2018-Apr-19 22:30N 53°23' W 003°00'0 0.0
2018-Apr-19 22:00N 53°23' W 003°00'0 0.3
2018-Apr-19 21:29N 53°23' W 002°60'0 0.3
2018-Apr-19 20:59N 53°23' W 002°60'2 3.3
2018-Apr-19 20:29N 53°24' W 003°00'0 0.0
2018-Apr-19 19:59N 53°24' W 003°00'0 0.0
2018-Apr-19 19:28N 53°24' W 003°00'0 0.0
2018-Apr-19 18:58N 53°24' W 003°00'0 0.0
2018-Apr-19 18:28N 53°24' W 003°00'0 0.0
2018-Apr-19 17:58N 53°24' W 003°00'0 0.0
2018-Apr-19 17:28N 53°24' W 003°00'0 0.0
2018-Apr-19 16:58N 53°24' W 003°00'0 0.0
2018-Apr-19 16:28N 53°24' W 003°00'0 0.0
2018-Apr-19 15:55N 53°24' W 003°00'0 0.0
2018-Apr-19 15:22N 53°24' W 003°00'0 0.0
2018-Apr-19 14:58N 53°24' W 003°00'0 0.0
2018-Apr-19 14:28N 53°24' W 003°00'0 0.0
2018-Apr-19 13:58N 53°24' W 003°00'0 0.0
2018-Apr-19 13:28N 53°24' W 003°00'0 0.0
2018-Apr-19 12:52N 53°24' W 003°00'0 0.0
2018-Apr-19 12:28N 53°24' W 003°00'0 0.0
2018-Apr-19 11:58N 53°24' W 003°00'0 0.0
2018-Apr-19 11:28N 53°24' W 003°00'0 0.0
2018-Apr-19 10:58N 53°24' W 003°00'0 0.0
2018-Apr-19 10:28N 53°24' W 003°00'0 0.0
2018-Apr-19 09:58N 53°24' W 003°00'0 0.0
2018-Apr-19 09:28N 53°24' W 003°00'0 0.0
2018-Apr-19 08:52N 53°24' W 003°00'0 0.0
2018-Apr-19 08:28N 53°24' W 003°00'0 0.0
2018-Apr-19 07:58N 53°24' W 003°00'0 0.0
2018-Apr-19 07:28N 53°24' W 003°00'0 0.0
2018-Apr-19 06:58N 53°24' W 003°00'0 0.0
2018-Apr-19 06:28N 53°24' W 003°00'0 0.0
2018-Apr-19 05:58N 53°24' W 003°00'0 0.0
2018-Apr-19 05:22N 53°24' W 003°00'0 0.0
2018-Apr-19 04:58N 53°24' W 003°00'0 0.0
2018-Apr-19 04:28N 53°24' W 003°00'0 0.0
2018-Apr-19 03:58N 53°24' W 003°00'0 0.0
2018-Apr-19 03:25N 53°24' W 003°00'0 0.0
2018-Apr-19 02:58N 53°24' W 003°00'0 0.0
2018-Apr-19 02:28N 53°24' W 003°00'0 0.0
2018-Apr-19 01:58N 53°24' W 003°00'0 0.0
2018-Apr-19 01:29N 53°24' W 003°00'2 3.4
2018-Apr-19 00:59N 53°23' W 002°60'1 2.5
2018-Apr-19 00:30N 53°24' W 003°00'3 6.3
2018-Apr-19 00:00N 53°27' W 003°02'4 8.3
2018-Apr-18 23:30N 53°30' W 003°06'510.0
2018-Apr-18 23:00N 53°31' W 003°14'1 1.1
2018-Apr-18 22:30N 53°31' W 003°13'5 9.7
2018-Apr-18 22:00N 53°30' W 003°06'4 9.0
2018-Apr-18 21:30N 53°26' W 003°01'4 4.9
2018-Apr-18 20:43N 53°23' W 002°60'0 0.0
2018-Apr-18 20:28N 53°23' W 002°60'0 0.0
2018-Apr-18 19:58N 53°23' W 002°60'0 0.0
2018-Apr-18 19:19N 53°23' W 002°60'0 0.0
2018-Apr-18 18:58N 53°23' W 002°60'0 0.0
2018-Apr-18 18:16N 53°23' W 002°60'0 0.0
2018-Apr-18 17:58N 53°23' W 002°60'0 0.0
2018-Apr-18 17:28N 53°23' W 002°60'0 0.0
2018-Apr-18 16:52N 53°23' W 002°60'0 0.0
2018-Apr-18 16:22N 53°23' W 002°60'0 0.0
2018-Apr-18 15:55N 53°23' W 002°60'0 0.0
2018-Apr-18 15:28N 53°23' W 002°60'0 0.0
2018-Apr-18 14:58N 53°23' W 002°60'0 0.0
2018-Apr-18 14:28N 53°23' W 002°60'0 0.0
2018-Apr-18 13:58N 53°23' W 002°60'0 0.0
2018-Apr-18 13:28N 53°23' W 002°60'0 0.6
2018-Apr-18 13:00N 53°23' W 003°00'0 0.8
2018-Apr-18 12:30N 53°23' W 003°00'2 4.9
2018-Apr-18 12:00N 53°26' W 003°01'5 9.1
2018-Apr-18 11:30N 53°29' W 003°05'5 9.0
2018-Apr-18 11:00N 53°31' W 003°12'3 6.3
2018-Apr-18 10:30N 53°31' W 003°07'5 9.4
2018-Apr-18 10:01N 53°28' W 003°02'1 1.9
2018-Apr-18 09:30N 53°27' W 003°01'0 0.3
2018-Apr-18 08:57N 53°27' W 003°01'2 3.6
2018-Apr-18 08:25N 53°25' W 003°00'0 0.0
2018-Apr-18 07:55N 53°25' W 003°00'0 0.0
2018-Apr-18 07:28N 53°25' W 003°00'0 0.0
2018-Apr-18 06:58N 53°25' W 003°00'0 0.0
2018-Apr-18 06:22N 53°25' W 003°00'0 0.0
2018-Apr-18 05:58N 53°25' W 003°00'0 0.0
2018-Apr-18 05:25N 53°25' W 003°00'0 0.0
2018-Apr-18 04:58N 53°25' W 003°00'0 0.0
2018-Apr-18 04:25N 53°25' W 003°00'0 0.0
2018-Apr-18 03:55N 53°25' W 003°00'0 0.0
2018-Apr-18 03:28N 53°25' W 003°00'0 0.0
2018-Apr-18 02:55N 53°25' W 003°00'0 0.0
2018-Apr-18 02:25N 53°25' W 003°00'0 0.0
2018-Apr-18 01:49N 53°25' W 003°00'0 0.0
2018-Apr-18 01:28N 53°25' W 003°00'0 0.0
2018-Apr-18 00:58N 53°25' W 003°00'0 0.0
2018-Apr-18 00:25N 53°25' W 003°00'0 0.0
2018-Apr-17 23:55N 53°25' W 003°00'0 0.0
2018-Apr-17 23:31N 53°25' W 003°00'0 0.0
2018-Apr-17 23:01N 53°25' W 003°00'0 0.0
2018-Apr-17 22:31N 53°25' W 003°00'0 0.0
2018-Apr-17 21:57N 53°25' W 003°00'0 0.0
2018-Apr-17 21:27N 53°25' W 003°00'0 0.0
2018-Apr-17 20:57N 53°25' W 003°00'0 0.0
2018-Apr-17 20:30N 53°25' W 003°00'0 0.0
2018-Apr-17 20:00N 53°25' W 003°00'0 0.0
2018-Apr-17 19:30N 53°25' W 003°00'0 0.0
2018-Apr-17 19:00N 53°25' W 003°00'0 0.0
2018-Apr-17 18:30N 53°25' W 003°00'0 0.0
2018-Apr-17 18:00N 53°25' W 003°00'0 0.0
2018-Apr-17 17:27N 53°25' W 003°00'0 0.0
2018-Apr-17 17:00N 53°25' W 003°00'0 0.0
2018-Apr-17 16:30N 53°25' W 003°00'0 0.0
2018-Apr-17 15:57N 53°25' W 003°00'0 0.0
2018-Apr-17 15:30N 53°25' W 003°00'0 0.0
2018-Apr-17 15:00N 53°25' W 003°00'0 0.0
2018-Apr-17 14:30N 53°25' W 003°00'0 0.0
2018-Apr-17 13:57N 53°25' W 003°00'0 0.0
2018-Apr-17 13:30N 53°25' W 003°00'0 0.0
2018-Apr-17 12:51N 53°25' W 003°00'0 0.0
2018-Apr-17 12:30N 53°25' W 003°00'0 0.0
2018-Apr-17 11:54N 53°25' W 003°00'0 0.0
2018-Apr-17 11:30N 53°25' W 003°00'0 0.0
2018-Apr-17 10:42N 53°25' W 003°00'0 0.0
2018-Apr-17 10:27N 53°25' W 003°00'0 0.0
2018-Apr-17 10:00N 53°25' W 003°00'0 0.0
2018-Apr-17 09:30N 53°25' W 003°00'0 0.0
2018-Apr-17 08:57N 53°25' W 003°00'0 0.0
2018-Apr-17 08:30N 53°25' W 003°00'0 0.0
2018-Apr-17 08:00N 53°25' W 003°00'0 0.0
2018-Apr-17 07:30N 53°25' W 003°00'0 0.0
2018-Apr-17 07:00N 53°25' W 003°00'0 0.0
2018-Apr-17 06:24N 53°25' W 003°00'0 0.0
2018-Apr-17 06:00N 53°25' W 003°00'0 0.0
2018-Apr-17 05:30N 53°25' W 003°00'0 0.0
2018-Apr-17 05:00N 53°25' W 003°00'0 0.0
2018-Apr-17 04:30N 53°25' W 003°00'0 0.0
2018-Apr-17 04:00N 53°25' W 003°00'0 0.0
2018-Apr-17 03:30N 53°25' W 003°00'0 0.0
2018-Apr-17 03:00N 53°25' W 003°00'0 0.0
2018-Apr-17 02:30N 53°25' W 003°00'0 0.0
2018-Apr-17 02:00N 53°25' W 003°00'0 0.0
2018-Apr-17 01:30N 53°25' W 003°00'0 0.0
2018-Apr-17 01:00N 53°25' W 003°00'0 0.0
2018-Apr-17 00:30N 53°25' W 003°00'0 0.0
2018-Apr-17 00:00N 53°25' W 003°00'0 0.0
2018-Apr-16 23:21N 53°25' W 003°00'0 0.0
2018-Apr-16 23:00N 53°25' W 003°00'0 0.0
2018-Apr-16 22:30N 53°25' W 003°00'0 0.0
2018-Apr-16 22:00N 53°25' W 003°00'0 0.0
2018-Apr-16 21:30N 53°25' W 003°00'0 0.0
2018-Apr-16 21:00N 53°25' W 003°00'0 0.0
2018-Apr-16 20:30N 53°25' W 003°00'0 0.0
2018-Apr-16 19:57N 53°25' W 003°00'0 0.0
2018-Apr-16 19:27N 53°25' W 003°00'0 0.0
2018-Apr-16 19:00N 53°25' W 003°00'0 0.0
2018-Apr-16 18:30N 53°25' W 003°00'0 0.0
2018-Apr-16 18:00N 53°25' W 003°00'0 0.0
2018-Apr-16 17:27N 53°25' W 003°00'0 0.0
2018-Apr-16 17:00N 53°25' W 003°00'0 0.0
2018-Apr-16 16:24N 53°25' W 003°00'0 0.0
2018-Apr-16 16:00N 53°25' W 003°00'0 0.0
2018-Apr-16 15:30N 53°25' W 003°00'0 0.0
2018-Apr-16 14:54N 53°25' W 003°00'0 0.0
2018-Apr-16 14:30N 53°25' W 003°00'2 3.5
2018-Apr-16 14:00N 53°27' W 003°01'0 0.3
2018-Apr-16 13:29N 53°27' W 003°01'0 0.1
2018-Apr-16 13:00N 53°27' W 003°01'4 8.7
2018-Apr-16 12:30N 53°30' W 003°06'4 7.4
2018-Apr-16 12:00N 53°32' W 003°12'5 9.6
2018-Apr-16 11:30N 53°29' W 003°05'5 9.4
2018-Apr-16 11:00N 53°25' W 003°01'2 4.6
2018-Apr-16 10:29N 53°23' W 002°60'0 0.1
2018-Apr-16 10:00N 53°23' W 002°60'  
Track history (hours):
 
Tides and Currents Weather Stations Pressure Air Temp Water Temp Dewpoint Dewpoint Depression Visibility Wind Speed Wind Dir Waves Ship Positions

Svitzer Stanlow

Last reported at 2018-Apr-26 09:26 UTC. Time now 2018-Apr-26 09:50 UTC.
Position N 53°23' W 002°60'.

Length 39 m.

Type: Tug. MMSI: 235010620.

Date/timePositionNaut miles runAvg speedWind from/ knotsBaromVisibWave heightAir tempDewpointWater temp
2018-Apr-26 09:26N 53°23' W 002°60'0 0.0
2018-Apr-26 08:59N 53°23' W 002°60'0 0.0
2018-Apr-26 08:29N 53°23' W 002°60'0 0.0
2018-Apr-26 07:59N 53°23' W 002°60'0 0.0
2018-Apr-26 07:23N 53°23' W 002°60'0 0.0
2018-Apr-26 06:58N 53°23' W 002°60'0 0.0
2018-Apr-26 06:28N 53°23' W 002°60'0 0.0
2018-Apr-26 05:58N 53°23' W 002°60'0 0.0
2018-Apr-26 05:28N 53°23' W 002°60'0 0.0
2018-Apr-26 04:58N 53°23' W 002°60'0 0.0
2018-Apr-26 04:28N 53°23' W 002°60'0 0.0
2018-Apr-26 03:58N 53°23' W 002°60'0 0.0
2018-Apr-26 03:28N 53°23' W 002°60'0 0.0
2018-Apr-26 02:58N 53°23' W 002°60'0 0.0
2018-Apr-26 02:28N 53°23' W 002°60'0 0.0
2018-Apr-26 01:58N 53°23' W 002°60'0 0.0
2018-Apr-26 01:28N 53°23' W 002°60'0 0.0
2018-Apr-26 00:58N 53°23' W 002°60'0 0.0
2018-Apr-26 00:28N 53°23' W 002°60'0 0.0
2018-Apr-25 23:58N 53°23' W 002°60'0 0.0
2018-Apr-25 23:28N 53°23' W 002°60'0 0.0
2018-Apr-25 22:58N 53°23' W 002°60'0 0.0
2018-Apr-25 22:28N 53°23' W 002°60'0 0.0
2018-Apr-25 21:58N 53°23' W 002°60'0 0.0
2018-Apr-25 21:25N 53°23' W 002°60'0 0.0
2018-Apr-25 20:58N 53°23' W 002°60'0 0.0
2018-Apr-25 20:28N 53°23' W 002°60'0 0.0
2018-Apr-25 19:58N 53°23' W 002°60'0 0.0
2018-Apr-25 19:28N 53°23' W 002°60'0 0.0
2018-Apr-25 18:52N 53°23' W 002°60'0 0.0
2018-Apr-25 18:28N 53°23' W 002°60'0 0.0
2018-Apr-25 17:58N 53°23' W 002°60'0 0.0
2018-Apr-25 17:25N 53°23' W 002°60'0 0.0
2018-Apr-25 16:58N 53°23' W 002°60'0 0.0
2018-Apr-25 16:28N 53°23' W 002°60'0 0.0
2018-Apr-25 15:58N 53°23' W 002°60'0 0.0
2018-Apr-25 15:25N 53°23' W 002°60'0 0.0
2018-Apr-25 14:58N 53°23' W 002°60'0 0.0
2018-Apr-25 14:25N 53°23' W 002°60'0 0.0
2018-Apr-25 13:58N 53°23' W 002°60'0 0.0
2018-Apr-25 13:28N 53°23' W 002°60'0 0.0
2018-Apr-25 12:58N 53°23' W 002°60'0 0.0
2018-Apr-25 12:25N 53°23' W 002°60'0 0.0
2018-Apr-25 11:55N 53°23' W 002°60'0 0.0
2018-Apr-25 11:25N 53°23' W 002°60'0 0.0
2018-Apr-25 10:58N 53°23' W 002°60'0 0.0
2018-Apr-25 10:25N 53°23' W 002°60'0 0.0
2018-Apr-25 09:58N 53°23' W 002°60'0 0.0
2018-Apr-25 09:28N 53°23' W 002°60'0 0.0
2018-Apr-25 08:58N 53°23' W 002°60'0 0.0
2018-Apr-25 08:28N 53°23' W 002°60'0 0.0
2018-Apr-25 07:55N 53°23' W 002°60'0 0.6
2018-Apr-25 07:28N 53°23' W 003°00'1 1.1
2018-Apr-25 06:59N 53°23' W 003°00'2 5.0
2018-Apr-25 06:30N 53°26' W 003°01'5 8.6
2018-Apr-25 05:59N 53°30' W 003°05'4 8.6
2018-Apr-25 05:30N 53°32' W 003°11'3 6.4
2018-Apr-25 05:00N 53°31' W 003°06'510.5
2018-Apr-25 04:30N 53°26' W 003°01'2 3.7
2018-Apr-25 04:00N 53°25' W 003°00'2 3.8
2018-Apr-25 03:30N 53°26' W 003°01'1 1.8
2018-Apr-25 02:59N 53°25' W 003°00'0 0.0
2018-Apr-25 02:29N 53°25' W 003°00'0 0.0
2018-Apr-25 01:59N 53°25' W 003°00'0 0.0
2018-Apr-25 01:29N 53°25' W 003°00'0 0.0
2018-Apr-25 00:59N 53°25' W 003°00'0 0.0
2018-Apr-25 00:29N 53°25' W 003°00'0 0.0
2018-Apr-24 23:59N 53°25' W 003°00'0 0.0
2018-Apr-24 23:29N 53°25' W 003°00'0 0.0
2018-Apr-24 22:59N 53°25' W 003°00'0 0.0
2018-Apr-24 22:29N 53°25' W 003°00'0 0.0
2018-Apr-24 21:59N 53°25' W 003°00'0 0.0
2018-Apr-24 21:29N 53°25' W 003°00'0 0.0
2018-Apr-24 20:59N 53°25' W 003°00'0 0.0
2018-Apr-24 20:29N 53°25' W 003°00'0 0.0
2018-Apr-24 19:59N 53°25' W 003°00'0 0.0
2018-Apr-24 19:29N 53°25' W 003°00'0 0.0
2018-Apr-24 18:59N 53°25' W 003°00'0 0.0
2018-Apr-24 18:29N 53°25' W 003°00'0 0.0
2018-Apr-24 17:59N 53°25' W 003°00'0 0.0
2018-Apr-24 17:29N 53°25' W 003°00'0 0.0
2018-Apr-24 16:59N 53°25' W 003°00'0 0.0
2018-Apr-24 16:29N 53°25' W 003°00'0 0.0
2018-Apr-24 15:59N 53°25' W 003°00'0 0.0
2018-Apr-24 15:29N 53°25' W 003°00'0 0.0
2018-Apr-24 14:59N 53°25' W 003°00'0 0.0
2018-Apr-24 14:29N 53°25' W 003°00'0 0.0
2018-Apr-24 13:56N 53°25' W 003°00'0 0.0
2018-Apr-24 13:26N 53°25' W 003°00'0 0.0
2018-Apr-24 12:59N 53°25' W 003°00'0 0.0
2018-Apr-24 12:29N 53°25' W 003°00'0 0.0
2018-Apr-24 11:59N 53°25' W 003°00'0 0.0
2018-Apr-24 11:29N 53°25' W 003°00'0 0.0
2018-Apr-24 10:59N 53°25' W 003°00'0 0.0
2018-Apr-24 10:29N 53°25' W 003°00'0 0.0
2018-Apr-24 09:56N 53°25' W 003°00'0 0.0
2018-Apr-24 09:29N 53°25' W 003°00'0 0.0
2018-Apr-24 08:59N 53°25' W 003°00'0 0.0
2018-Apr-24 08:29N 53°25' W 003°00'0 0.0
2018-Apr-24 07:59N 53°25' W 003°00'0 0.0
2018-Apr-24 07:29N 53°25' W 003°00'0 0.0
2018-Apr-24 06:59N 53°25' W 003°00'0 0.0
2018-Apr-24 06:26N 53°25' W 003°00'0 0.0
2018-Apr-24 05:59N 53°25' W 003°00'0 0.0
2018-Apr-24 05:29N 53°25' W 003°00'0 0.0
2018-Apr-24 04:59N 53°25' W 003°00'0 0.0
2018-Apr-24 04:26N 53°25' W 003°00'0 0.0
2018-Apr-24 03:58N 53°25' W 003°00'0 0.0
2018-Apr-24 03:28N 53°25' W 003°00'0 0.0
2018-Apr-24 02:55N 53°25' W 003°00'0 0.0
2018-Apr-24 02:28N 53°25' W 003°00'0 0.0
2018-Apr-24 01:58N 53°25' W 003°00'0 0.0
2018-Apr-24 01:25N 53°25' W 003°00'0 0.0
2018-Apr-24 00:55N 53°25' W 003°00'0 0.0
2018-Apr-24 00:28N 53°25' W 003°00'0 0.0
2018-Apr-23 23:58N 53°25' W 003°00'0 0.0
2018-Apr-23 23:28N 53°25' W 003°00'0 0.0
2018-Apr-23 22:52N 53°25' W 003°00'0 0.0
2018-Apr-23 22:28N 53°25' W 003°00'0 0.0
2018-Apr-23 21:58N 53°25' W 003°00'0 0.0
2018-Apr-23 21:28N 53°25' W 003°00'0 0.0
2018-Apr-23 20:55N 53°25' W 003°00'0 0.0
2018-Apr-23 20:28N 53°25' W 003°00'0 0.0
2018-Apr-23 19:58N 53°25' W 003°00'0 0.0
2018-Apr-23 19:28N 53°25' W 003°00'0 0.0
2018-Apr-23 18:55N 53°25' W 003°00'0 0.0
2018-Apr-23 18:22N 53°25' W 003°00'0 0.0
2018-Apr-23 17:58N 53°25' W 003°00'0 0.0
2018-Apr-23 17:25N 53°25' W 003°00'0 0.0
2018-Apr-23 16:55N 53°25' W 003°00'0 0.0
2018-Apr-23 16:28N 53°25' W 003°00'0 0.0
2018-Apr-23 15:55N 53°25' W 003°00'0 0.0
2018-Apr-23 15:25N 53°25' W 003°00'0 0.0
2018-Apr-23 14:58N 53°25' W 003°00'0 0.0
2018-Apr-23 14:28N 53°25' W 003°00'0 0.0
2018-Apr-23 13:58N 53°25' W 003°00'0 0.0
2018-Apr-23 13:28N 53°25' W 003°00'0 0.0
2018-Apr-23 12:58N 53°25' W 003°00'0 0.0
2018-Apr-23 12:28N 53°25' W 003°00'0 0.0
2018-Apr-23 11:58N 53°25' W 003°00'0 0.0
2018-Apr-23 11:28N 53°25' W 003°00'0 0.0
2018-Apr-23 10:58N 53°25' W 003°00'0 0.0
2018-Apr-23 10:25N 53°25' W 003°00'0 0.0
2018-Apr-23 09:58N 53°25' W 003°00'0 0.0
2018-Apr-23 09:25N 53°25' W 003°00'0 0.0
2018-Apr-23 08:58N 53°25' W 003°00'0 0.0
2018-Apr-23 08:28N 53°25' W 003°00'0 0.0
2018-Apr-23 07:55N 53°25' W 003°00'0 0.0
2018-Apr-23 07:28N 53°25' W 003°00'0 0.0
2018-Apr-23 06:58N 53°25' W 003°00'0 0.0
2018-Apr-23 06:28N 53°25' W 003°00'0 0.0
2018-Apr-23 05:58N 53°25' W 003°00'0 0.0
2018-Apr-23 05:28N 53°25' W 003°00'0 0.3
2018-Apr-23 05:00N 53°26' W 003°00'1 1.0
2018-Apr-23 04:26N 53°26' W 003°00'0 0.1
2018-Apr-23 03:59N 53°26' W 003°00'0 0.6
2018-Apr-23 03:28N 53°26' W 003°00'0 0.3
2018-Apr-23 03:00N 53°26' W 003°01'0 0.0
2018-Apr-23 02:30N 53°26' W 003°01'0 0.1
2018-Apr-23 01:57N 53°26' W 003°01'0 1.0
2018-Apr-23 01:30N 53°26' W 003°01'1 1.2
2018-Apr-23 00:59N 53°27' W 003°01'2 3.4
2018-Apr-23 00:29N 53°25' W 003°00'0 0.0
2018-Apr-22 23:59N 53°25' W 003°00'0 0.0
2018-Apr-22 23:29N 53°25' W 003°00'0 0.0
2018-Apr-22 22:59N 53°25' W 003°00'0 0.0
2018-Apr-22 22:26N 53°25' W 003°00'0 0.0
2018-Apr-22 21:59N 53°25' W 003°00'0 0.0
2018-Apr-22 21:28N 53°25' W 003°00'0 0.0
2018-Apr-22 20:58N 53°25' W 003°00'0 0.0
2018-Apr-22 20:28N 53°25' W 003°00'0 0.0
2018-Apr-22 19:58N 53°25' W 003°00'0 0.0
2018-Apr-22 19:25N 53°25' W 003°00'0 0.0
2018-Apr-22 18:58N 53°25' W 003°00'0 0.0
2018-Apr-22 18:25N 53°25' W 003°00'0 0.0
2018-Apr-22 17:58N 53°25' W 003°00'0 0.0
2018-Apr-22 17:28N 53°25' W 003°00'0 0.0
2018-Apr-22 16:49N 53°25' W 003°00'0 0.0
2018-Apr-22 16:28N 53°25' W 003°00'0 0.0
2018-Apr-22 15:58N 53°25' W 003°00'0 0.0
2018-Apr-22 15:28N 53°25' W 003°00'0 0.0
2018-Apr-22 14:58N 53°25' W 003°00'0 0.0
2018-Apr-22 14:28N 53°25' W 003°00'0 0.0
2018-Apr-22 13:58N 53°25' W 003°00'0 0.0
2018-Apr-22 13:28N 53°25' W 003°00'0 0.0
2018-Apr-22 12:55N 53°25' W 003°00'0 0.0
2018-Apr-22 12:28N 53°25' W 003°00'0 0.0
2018-Apr-22 11:58N 53°25' W 003°00'0 0.0
2018-Apr-22 11:22N 53°25' W 003°00'0 0.0
2018-Apr-22 10:55N 53°25' W 003°00'0 0.0
2018-Apr-22 10:25N 53°25' W 003°00'0 0.0
2018-Apr-22 09:55N 53°25' W 003°00'0 0.0
2018-Apr-22 09:28N 53°25' W 003°00'0 0.0
2018-Apr-22 08:58N 53°25' W 003°00'0 0.0
2018-Apr-22 08:28N 53°25' W 003°00'0 0.0
2018-Apr-22 07:58N 53°25' W 003°00'0 0.0
2018-Apr-22 07:28N 53°25' W 003°00'0 0.0
2018-Apr-22 06:58N 53°25' W 003°00'0 0.0
2018-Apr-22 06:28N 53°25' W 003°00'0 0.0
2018-Apr-22 05:58N 53°25' W 003°00'0 0.0
2018-Apr-22 05:28N 53°25' W 003°00'0 0.0
2018-Apr-22 04:55N 53°25' W 003°00'0 0.0
2018-Apr-22 04:25N 53°25' W 003°00'0 0.0
2018-Apr-22 03:58N 53°25' W 003°00'0 0.0
2018-Apr-22 03:29N 53°25' W 003°00'2 2.7
2018-Apr-22 02:53N 53°27' W 003°01'1 3.5
2018-Apr-22 02:30N 53°26' W 003°01'3 4.9
2018-Apr-22 01:52N 53°23' W 002°60'0 0.6
2018-Apr-22 01:29N 53°23' W 003°00'0 0.0
2018-Apr-22 00:56N 53°23' W 003°00'0 0.0
2018-Apr-22 00:26N 53°23' W 003°00'0 0.0
2018-Apr-21 23:56N 53°23' W 003°00'0 0.0
2018-Apr-21 23:29N 53°23' W 003°00'0 0.0
2018-Apr-21 22:59N 53°23' W 003°00'0 0.0
2018-Apr-21 22:29N 53°23' W 003°00'0 0.0
2018-Apr-21 21:59N 53°23' W 003°00'0 0.0
2018-Apr-21 21:26N 53°23' W 003°00'0 0.0
2018-Apr-21 20:53N 53°23' W 003°00'0 0.0
2018-Apr-21 20:23N 53°23' W 003°00'0 0.0
2018-Apr-21 19:59N 53°23' W 003°00'0 0.0
2018-Apr-21 19:29N 53°23' W 003°00'0 0.0
2018-Apr-21 18:59N 53°23' W 003°00'0 0.0
2018-Apr-21 18:28N 53°23' W 003°00'0 0.0
2018-Apr-21 17:55N 53°23' W 003°00'0 0.0
2018-Apr-21 17:28N 53°23' W 003°00'0 0.0
2018-Apr-21 16:55N 53°23' W 003°00'0 0.0
2018-Apr-21 16:28N 53°23' W 003°00'0 0.0
2018-Apr-21 15:55N 53°23' W 003°00'0 0.0
2018-Apr-21 15:28N 53°23' W 003°00'0 0.0
2018-Apr-21 14:55N 53°23' W 003°00'0 0.0
2018-Apr-21 14:28N 53°23' W 003°00'0 0.0
2018-Apr-21 13:58N 53°23' W 003°00'0 0.0
2018-Apr-21 13:28N 53°23' W 003°00'0 0.0
2018-Apr-21 12:58N 53°23' W 003°00'0 0.0
2018-Apr-21 12:28N 53°23' W 003°00'0 0.0
2018-Apr-21 11:52N 53°23' W 003°00'0 0.0
2018-Apr-21 11:25N 53°23' W 003°00'0 0.0
2018-Apr-21 10:58N 53°23' W 003°00'0 0.0
2018-Apr-21 10:28N 53°23' W 003°00'0 0.0
2018-Apr-21 09:58N 53°23' W 003°00'0 0.0
2018-Apr-21 09:28N 53°23' W 003°00'0 0.0
2018-Apr-21 08:58N 53°23' W 003°00'0 0.0
2018-Apr-21 08:28N 53°23' W 003°00'0 0.0
2018-Apr-21 07:58N 53°23' W 003°00'0 0.0
2018-Apr-21 07:28N 53°23' W 003°00'0 0.0
2018-Apr-21 06:58N 53°23' W 003°00'0 0.0
2018-Apr-21 06:28N 53°23' W 003°00'0 0.0
2018-Apr-21 05:58N 53°23' W 003°00'0 0.0
2018-Apr-21 05:28N 53°23' W 003°00'0 0.0
2018-Apr-21 04:58N 53°23' W 003°00'0 0.0
2018-Apr-21 04:25N 53°23' W 003°00'0 0.0
2018-Apr-21 03:55N 53°23' W 003°00'0 0.0
2018-Apr-21 03:28N 53°23' W 003°00'0 0.0
2018-Apr-21 02:55N 53°23' W 003°00'0 0.0
2018-Apr-21 02:28N 53°23' W 003°00'0 0.0
2018-Apr-21 01:58N 53°23' W 003°00'0 0.0
2018-Apr-21 01:22N 53°23' W 003°00'0 0.0
2018-Apr-21 00:55N 53°23' W 003°00'0 0.0
2018-Apr-21 00:28N 53°23' W 003°00'0 0.0
2018-Apr-20 23:58N 53°23' W 003°00'0 0.0
2018-Apr-20 23:28N 53°23' W 003°00'0 0.0
2018-Apr-20 22:58N 53°23' W 003°00'0 0.0
2018-Apr-20 22:28N 53°23' W 003°00'0 0.0
2018-Apr-20 21:58N 53°23' W 003°00'0 0.0
2018-Apr-20 21:28N 53°23' W 003°00'0 0.0
2018-Apr-20 20:55N 53°23' W 003°00'0 0.0
2018-Apr-20 20:28N 53°23' W 003°00'0 0.0
2018-Apr-20 19:58N 53°23' W 003°00'0 0.0
2018-Apr-20 19:28N 53°23' W 003°00'0 0.0
2018-Apr-20 18:58N 53°23' W 003°00'0 0.0
2018-Apr-20 18:28N 53°23' W 003°00'0 0.0
2018-Apr-20 17:58N 53°23' W 003°00'0 0.0
2018-Apr-20 17:28N 53°23' W 003°00'0 0.0
2018-Apr-20 16:58N 53°23' W 003°00'0 0.0
2018-Apr-20 16:28N 53°23' W 003°00'0 0.0
2018-Apr-20 15:58N 53°23' W 003°00'0 0.0
2018-Apr-20 15:28N 53°23' W 003°00'0 0.0
2018-Apr-20 14:58N 53°23' W 003°00'0 0.0
2018-Apr-20 14:28N 53°23' W 003°00'0 0.0
2018-Apr-20 13:58N 53°23' W 003°00'0 0.0
2018-Apr-20 13:28N 53°23' W 003°00'0 0.0
2018-Apr-20 12:58N 53°23' W 003°00'0 0.0
2018-Apr-20 12:28N 53°23' W 003°00'0 0.0
2018-Apr-20 11:58N 53°23' W 003°00'0 0.0
2018-Apr-20 11:28N 53°23' W 003°00'0 0.0
2018-Apr-20 11:01N 53°23' W 003°00'0 0.0
2018-Apr-20 10:31N 53°23' W 003°00'0 0.0
2018-Apr-20 10:01N 53°23' W 003°00'0 0.0
2018-Apr-20 09:30N 53°23' W 003°00'0 0.0
2018-Apr-20 08:57N 53°23' W 003°00'0 0.0
2018-Apr-20 08:30N 53°23' W 003°00'0 0.0
2018-Apr-20 07:57N 53°23' W 003°00'0 0.0
2018-Apr-20 07:24N 53°23' W 003°00'0 0.0
2018-Apr-20 07:00N 53°23' W 003°00'0 0.0
2018-Apr-20 06:30N 53°23' W 003°00'0 0.0
2018-Apr-20 06:00N 53°23' W 003°00'0 0.0
2018-Apr-20 05:30N 53°23' W 003°00'0 0.0
2018-Apr-20 05:00N 53°23' W 003°00'0 0.0
2018-Apr-20 04:27N 53°23' W 003°00'0 0.0
2018-Apr-20 04:00N 53°23' W 003°00'0 0.0
2018-Apr-20 03:30N 53°23' W 003°00'0 0.0
2018-Apr-20 03:00N 53°23' W 003°00'0 0.0
2018-Apr-20 02:30N 53°23' W 003°00'0 0.0
2018-Apr-20 01:57N 53°23' W 003°00'0 0.0
2018-Apr-20 01:30N 53°23' W 003°00'0 0.0
2018-Apr-20 01:00N 53°23' W 003°00'0 0.0
2018-Apr-20 00:24N 53°23' W 003°00'0 0.0
2018-Apr-20 00:00N 53°23' W 003°00'0 0.0
2018-Apr-19 23:27N 53°23' W 003°00'0 0.0
2018-Apr-19 23:00N 53°23' W 003°00'0 0.0
2018-Apr-19 22:30N 53°23' W 003°00'0 0.0
2018-Apr-19 22:00N 53°23' W 003°00'0 0.3
2018-Apr-19 21:29N 53°23' W 002°60'0 0.3
2018-Apr-19 20:59N 53°23' W 002°60'2 3.3
2018-Apr-19 20:29N 53°24' W 003°00'0 0.0
2018-Apr-19 19:59N 53°24' W 003°00'0 0.0
2018-Apr-19 19:28N 53°24' W 003°00'0 0.0
2018-Apr-19 18:58N 53°24' W 003°00'0 0.0
2018-Apr-19 18:28N 53°24' W 003°00'0 0.0
2018-Apr-19 17:58N 53°24' W 003°00'0 0.0
2018-Apr-19 17:28N 53°24' W 003°00'0 0.0
2018-Apr-19 16:58N 53°24' W 003°00'0 0.0
2018-Apr-19 16:28N 53°24' W 003°00'0 0.0
2018-Apr-19 15:55N 53°24' W 003°00'0 0.0
2018-Apr-19 15:22N 53°24' W 003°00'0 0.0
2018-Apr-19 14:58N 53°24' W 003°00'0 0.0
2018-Apr-19 14:28N 53°24' W 003°00'0 0.0
2018-Apr-19 13:58N 53°24' W 003°00'0 0.0
2018-Apr-19 13:28N 53°24' W 003°00'0 0.0
2018-Apr-19 12:52N 53°24' W 003°00'0 0.0
2018-Apr-19 12:28N 53°24' W 003°00'0 0.0
2018-Apr-19 11:58N 53°24' W 003°00'0 0.0
2018-Apr-19 11:28N 53°24' W 003°00'0 0.0
2018-Apr-19 10:58N 53°24' W 003°00'0 0.0
2018-Apr-19 10:28N 53°24' W 003°00'0 0.0
2018-Apr-19 09:58N 53°24' W 003°00'0 0.0
2018-Apr-19 09:28N 53°24' W 003°00'0 0.0
2018-Apr-19 08:52N 53°24' W 003°00'0 0.0
2018-Apr-19 08:28N 53°24' W 003°00'0 0.0
2018-Apr-19 07:58N 53°24' W 003°00'0 0.0
2018-Apr-19 07:28N 53°24' W 003°00'0 0.0
2018-Apr-19 06:58N 53°24' W 003°00'0 0.0
2018-Apr-19 06:28N 53°24' W 003°00'0 0.0
2018-Apr-19 05:58N 53°24' W 003°00'0 0.0
2018-Apr-19 05:22N 53°24' W 003°00'0 0.0
2018-Apr-19 04:58N 53°24' W 003°00'0 0.0
2018-Apr-19 04:28N 53°24' W 003°00'0 0.0
2018-Apr-19 03:58N 53°24' W 003°00'0 0.0
2018-Apr-19 03:25N 53°24' W 003°00'0 0.0
2018-Apr-19 02:58N 53°24' W 003°00'0 0.0
2018-Apr-19 02:28N 53°24' W 003°00'0 0.0
2018-Apr-19 01:58N 53°24' W 003°00'0 0.0
2018-Apr-19 01:29N 53°24' W 003°00'2 3.4
2018-Apr-19 00:59N 53°23' W 002°60'1 2.5
2018-Apr-19 00:30N 53°24' W 003°00'3 6.3
2018-Apr-19 00:00N 53°27' W 003°02'4 8.3
2018-Apr-18 23:30N 53°30' W 003°06'510.0
2018-Apr-18 23:00N 53°31' W 003°14'1 1.1
2018-Apr-18 22:30N 53°31' W 003°13'5 9.7
2018-Apr-18 22:00N 53°30' W 003°06'4 9.0
2018-Apr-18 21:30N 53°26' W 003°01'4 4.9
2018-Apr-18 20:43N 53°23' W 002°60'0 0.0
2018-Apr-18 20:28N 53°23' W 002°60'0 0.0
2018-Apr-18 19:58N 53°23' W 002°60'0 0.0
2018-Apr-18 19:19N 53°23' W 002°60'0 0.0
2018-Apr-18 18:58N 53°23' W 002°60'0 0.0
2018-Apr-18 18:16N 53°23' W 002°60'0 0.0
2018-Apr-18 17:58N 53°23' W 002°60'0 0.0
2018-Apr-18 17:28N 53°23' W 002°60'0 0.0
2018-Apr-18 16:52N 53°23' W 002°60'0 0.0
2018-Apr-18 16:22N 53°23' W 002°60'0 0.0
2018-Apr-18 15:55N 53°23' W 002°60'0 0.0
2018-Apr-18 15:28N 53°23' W 002°60'0 0.0
2018-Apr-18 14:58N 53°23' W 002°60'0 0.0
2018-Apr-18 14:28N 53°23' W 002°60'0 0.0
2018-Apr-18 13:58N 53°23' W 002°60'0 0.0
2018-Apr-18 13:28N 53°23' W 002°60'0 0.6
2018-Apr-18 13:00N 53°23' W 003°00'0 0.8
2018-Apr-18 12:30N 53°23' W 003°00'2 4.9
2018-Apr-18 12:00N 53°26' W 003°01'5 9.1
2018-Apr-18 11:30N 53°29' W 003°05'5 9.0
2018-Apr-18 11:00N 53°31' W 003°12'3 6.3
2018-Apr-18 10:30N 53°31' W 003°07'5 9.4
2018-Apr-18 10:01N 53°28' W 003°02'1 1.9
2018-Apr-18 09:30N 53°27' W 003°01'0 0.3
2018-Apr-18 08:57N 53°27' W 003°01'2 3.6
2018-Apr-18 08:25N 53°25' W 003°00'0 0.0
2018-Apr-18 07:55N 53°25' W 003°00'0 0.0
2018-Apr-18 07:28N 53°25' W 003°00'0 0.0
2018-Apr-18 06:58N 53°25' W 003°00'0 0.0
2018-Apr-18 06:22N 53°25' W 003°00'0 0.0
2018-Apr-18 05:58N 53°25' W 003°00'0 0.0
2018-Apr-18 05:25N 53°25' W 003°00'0 0.0
2018-Apr-18 04:58N 53°25' W 003°00'0 0.0
2018-Apr-18 04:25N 53°25' W 003°00'0 0.0
2018-Apr-18 03:55N 53°25' W 003°00'0 0.0
2018-Apr-18 03:28N 53°25' W 003°00'0 0.0
2018-Apr-18 02:55N 53°25' W 003°00'0 0.0
2018-Apr-18 02:25N 53°25' W 003°00'0 0.0
2018-Apr-18 01:49N 53°25' W 003°00'0 0.0
2018-Apr-18 01:28N 53°25' W 003°00'0 0.0
2018-Apr-18 00:58N 53°25' W 003°00'0 0.0
2018-Apr-18 00:25N 53°25' W 003°00'0 0.0
2018-Apr-17 23:55N 53°25' W 003°00'0 0.0
2018-Apr-17 23:31N 53°25' W 003°00'0 0.0
2018-Apr-17 23:01N 53°25' W 003°00'0 0.0
2018-Apr-17 22:31N 53°25' W 003°00'0 0.0
2018-Apr-17 21:57N 53°25' W 003°00'0 0.0
2018-Apr-17 21:27N 53°25' W 003°00'0 0.0
2018-Apr-17 20:57N 53°25' W 003°00'0 0.0
2018-Apr-17 20:30N 53°25' W 003°00'0 0.0
2018-Apr-17 20:00N 53°25' W 003°00'0 0.0
2018-Apr-17 19:30N 53°25' W 003°00'0 0.0
2018-Apr-17 19:00N 53°25' W 003°00'0 0.0
2018-Apr-17 18:30N 53°25' W 003°00'0 0.0
2018-Apr-17 18:00N 53°25' W 003°00'0 0.0
2018-Apr-17 17:27N 53°25' W 003°00'0 0.0
2018-Apr-17 17:00N 53°25' W 003°00'0 0.0
2018-Apr-17 16:30N 53°25' W 003°00'0 0.0
2018-Apr-17 15:57N 53°25' W 003°00'0 0.0
2018-Apr-17 15:30N 53°25' W 003°00'0 0.0
2018-Apr-17 15:00N 53°25' W 003°00'0 0.0
2018-Apr-17 14:30N 53°25' W 003°00'0 0.0
2018-Apr-17 13:57N 53°25' W 003°00'0 0.0
2018-Apr-17 13:30N 53°25' W 003°00'0 0.0
2018-Apr-17 12:51N 53°25' W 003°00'0 0.0
2018-Apr-17 12:30N 53°25' W 003°00'0 0.0
2018-Apr-17 11:54N 53°25' W 003°00'0 0.0
2018-Apr-17 11:30N 53°25' W 003°00'0 0.0
2018-Apr-17 10:42N 53°25' W 003°00'0 0.0
2018-Apr-17 10:27N 53°25' W 003°00'0 0.0
2018-Apr-17 10:00N 53°25' W 003°00'0 0.0
2018-Apr-17 09:30N 53°25' W 003°00'0 0.0
2018-Apr-17 08:57N 53°25' W 003°00'0 0.0
2018-Apr-17 08:30N 53°25' W 003°00'0 0.0
2018-Apr-17 08:00N 53°25' W 003°00'0 0.0
2018-Apr-17 07:30N 53°25' W 003°00'0 0.0
2018-Apr-17 07:00N 53°25' W 003°00'0 0.0
2018-Apr-17 06:24N 53°25' W 003°00'0 0.0
2018-Apr-17 06:00N 53°25' W 003°00'0 0.0
2018-Apr-17 05:30N 53°25' W 003°00'0 0.0
2018-Apr-17 05:00N 53°25' W 003°00'0 0.0
2018-Apr-17 04:30N 53°25' W 003°00'0 0.0
2018-Apr-17 04:00N 53°25' W 003°00'0 0.0
2018-Apr-17 03:30N 53°25' W 003°00'0 0.0
2018-Apr-17 03:00N 53°25' W 003°00'0 0.0
2018-Apr-17 02:30N 53°25' W 003°00'0 0.0
2018-Apr-17 02:00N 53°25' W 003°00'0 0.0
2018-Apr-17 01:30N 53°25' W 003°00'0 0.0
2018-Apr-17 01:00N 53°25' W 003°00'0 0.0
2018-Apr-17 00:30N 53°25' W 003°00'0 0.0
2018-Apr-17 00:00N 53°25' W 003°00'0 0.0
2018-Apr-16 23:21N 53°25' W 003°00'0 0.0
2018-Apr-16 23:00N 53°25' W 003°00'0 0.0
2018-Apr-16 22:30N 53°25' W 003°00'0 0.0
2018-Apr-16 22:00N 53°25' W 003°00'0 0.0
2018-Apr-16 21:30N 53°25' W 003°00'0 0.0
2018-Apr-16 21:00N 53°25' W 003°00'0 0.0
2018-Apr-16 20:30N 53°25' W 003°00'0 0.0
2018-Apr-16 19:57N 53°25' W 003°00'0 0.0
2018-Apr-16 19:27N 53°25' W 003°00'0 0.0
2018-Apr-16 19:00N 53°25' W 003°00'0 0.0
2018-Apr-16 18:30N 53°25' W 003°00'0 0.0
2018-Apr-16 18:00N 53°25' W 003°00'0 0.0
2018-Apr-16 17:27N 53°25' W 003°00'0 0.0
2018-Apr-16 17:00N 53°25' W 003°00'0 0.0
2018-Apr-16 16:24N 53°25' W 003°00'0 0.0
2018-Apr-16 16:00N 53°25' W 003°00'0 0.0
2018-Apr-16 15:30N 53°25' W 003°00'0 0.0
2018-Apr-16 14:54N 53°25' W 003°00'0 0.0
2018-Apr-16 14:30N 53°25' W 003°00'2 3.5
2018-Apr-16 14:00N 53°27' W 003°01'0 0.3
2018-Apr-16 13:29N 53°27' W 003°01'0 0.1
2018-Apr-16 13:00N 53°27' W 003°01'4 8.7
2018-Apr-16 12:30N 53°30' W 003°06'4 7.4
2018-Apr-16 12:00N 53°32' W 003°12'5 9.6
2018-Apr-16 11:30N 53°29' W 003°05'5 9.4
2018-Apr-16 11:00N 53°25' W 003°01'2 4.6
2018-Apr-16 10:29N 53°23' W 002°60'0 0.1
2018-Apr-16 10:00N 53°23' W 002°60'  

Dump ship's entire track history